Terminal Aerodrome Forecast
Issued by NWS Twin Cities, MN

Home | Current Version | Previous Version | Text Only | Print | Product List | Glossary On
Versions: 1 2 3 4 5 6 7 8 9 10 11 12 13 14 15 16 17 18 19 20 21 22 23 24 25 26 27
000
FTUS43 KMPX 251739
TAFMSP
TAF
KMSP 251739Z 2518/2624 19015G24KT P6SM BKN100
     FM260100 17010KT P6SM VCTS BKN100CB
     FM260300 18005KT 6SM SHRA VCTS SCT040CB OVC070
      TEMPO 2603/2607 2SM TSRA SCT025CB OVC040
     FM261000 VRB03KT P6SM OVC040
      TEMPO 2611/2615 OVC025
     FM262000 36005KT P6SM SCT050 SCT120=

USA.gov is the U.S. government's official web portal to all federal, state and local government web resources and services.